Time;durP1;ratioP1;P1;durP2;ratioP2;P2;SDS_P1;SDS_P2;PMS_P1;PMS_P2;Temp;Humidity;BMP_temperature;BMP_pressure;BME280_temperature;BME280_humidity;BME280_pressure;Samples;Min_cycle;Max_cycle;Signal;HPM_P1;HPM_P2
2023/05/24 00:00:14;;;;;;;;;;;14.40;99.90;;;;;;20898906;28;19919;-75
2023/05/24 00:10:15;;;;;;;;;;;14.50;99.90;;;;;;20872706;28;19913;-75
2023/05/24 00:20:16;;;;;;;;;;;14.50;99.90;;;;;;20893011;28;20012;-76
2023/05/24 00:30:16;;;;;;;;;;;14.40;99.90;;;;;;20906735;28;20360;-77
2023/05/24 00:40:17;;;;;;;;;;;14.20;99.90;;;;;;20899637;28;20003;-76
2023/05/24 00:50:19;;;;;;;;;;;14.40;99.90;;;;;;20876191;28;19917;-77
2023/05/24 01:00:20;;;;;;;;;;;14.40;99.90;;;;;;20866459;28;19950;-75
2023/05/24 01:10:27;;;;;;;;;;;14.40;99.90;;;;;;20906731;28;19913;-77
2023/05/24 01:20:31;;;;;;;;;;;13.90;99.90;;;;;;20920584;28;19912;-78
2023/05/24 01:30:32;;;;;;;;;;;13.80;99.90;;;;;;20927074;28;19936;-77
2023/05/24 01:40:32;;;;;;;;;;;14.00;99.90;;;;;;20904087;28;19920;-77
2023/05/24 01:50:35;;;;;;;;;;;14.10;99.90;;;;;;20898666;28;19908;-78
2023/05/24 02:00:37;;;;;;;;;;;14.00;99.90;;;;;;20918565;28;19920;-78
2023/05/24 02:10:38;;;;;;;;;;;14.10;99.90;;;;;;20921656;28;20371;-78
2023/05/24 02:20:39;;;;;;;;;;;14.00;99.90;;;;;;20910905;28;19913;-77
2023/05/24 02:30:43;;;;;;;;;;;14.10;99.90;;;;;;20903488;28;20286;-78
2023/05/24 02:40:43;;;;;;;;;;;14.00;99.90;;;;;;20917838;28;19916;-78
2023/05/24 02:50:44;;;;;;;;;;;14.00;99.90;;;;;;20877471;28;19913;-77
2023/05/24 03:00:45;;;;;;;;;;;13.90;99.90;;;;;;20907249;28;19913;-77
2023/05/24 03:10:46;;;;;;;;;;;13.50;99.90;;;;;;20895409;28;19920;-76
2023/05/24 03:20:48;;;;;;;;;;;13.50;99.90;;;;;;20879787;28;19913;-77
2023/05/24 03:30:48;;;;;;;;;;;13.20;99.90;;;;;;20891619;28;20412;-77
2023/05/24 03:40:50;;;;;;;;;;;13.20;99.90;;;;;;20874604;28;19991;-77
2023/05/24 03:50:51;;;;;;;;;;;12.80;99.90;;;;;;20878364;28;20326;-77
2023/05/24 04:00:52;;;;;;;;;;;12.70;99.90;;;;;;20871228;28;19919;-77
2023/05/24 04:10:53;;;;;;;;;;;12.70;99.90;;;;;;20897965;28;20410;-77
2023/05/24 04:20:54;;;;;;;;;;;12.50;99.90;;;;;;20906236;28;19912;-76
2023/05/24 04:30:56;;;;;;;;;;;12.40;99.90;;;;;;20909443;28;19951;-76
2023/05/24 04:40:58;;;;;;;;;;;12.40;99.90;;;;;;20908570;28;20296;-76
2023/05/24 04:50:59;;;;;;;;;;;12.50;99.90;;;;;;20909642;28;20394;-77
2023/05/24 05:01:00;;;;;;;;;;;12.40;99.90;;;;;;20943453;28;19971;-81
2023/05/24 05:11:01;;;;;;;;;;;12.50;99.90;;;;;;20890235;28;19920;-77
2023/05/24 05:21:02;;;;;;;;;;;12.30;99.90;;;;;;20890466;28;19916;-77
2023/05/24 05:31:03;;;;;;;;;;;12.10;99.90;;;;;;20895620;28;19909;-77
2023/05/24 05:41:04;;;;;;;;;;;12.20;99.90;;;;;;20890686;28;19920;-77
2023/05/24 05:51:04;;;;;;;;;;;12.20;99.90;;;;;;20892101;28;19935;-77
2023/05/24 06:01:05;;;;;;;;;;;12.10;99.90;;;;;;20915777;28;19947;-76
2023/05/24 06:11:06;;;;;;;;;;;12.00;99.90;;;;;;20920713;28;20004;-77
2023/05/24 06:21:09;;;;;;;;;;;12.10;99.90;;;;;;20897087;28;20388;-77
2023/05/24 06:31:10;;;;;;;;;;;12.10;99.90;;;;;;20921784;28;20282;-77
2023/05/24 06:41:10;;;;;;;;;;;12.20;99.90;;;;;;20914065;28;19913;-77
2023/05/24 06:51:11;;;;;;;;;;;12.30;99.90;;;;;;20912985;28;20002;-76
2023/05/24 07:01:13;;;;;;;;;;;12.50;99.90;;;;;;20899237;28;19916;-77
2023/05/24 07:11:14;;;;;;;;;;;12.60;99.90;;;;;;20897267;28;19913;-77
2023/05/24 07:21:15;;;;;;;;;;;12.60;99.90;;;;;;20912630;28;20004;-77
2023/05/24 07:31:15;;;;;;;;;;;12.50;99.90;;;;;;20912631;28;19908;-77
2023/05/24 07:41:16;;;;;;;;;;;12.70;99.90;;;;;;20894476;28;19919;-77
2023/05/24 07:51:17;;;;;;;;;;;12.70;99.90;;;;;;20912300;28;19909;-77
2023/05/24 08:01:18;;;;;;;;;;;12.70;99.90;;;;;;20910647;28;19982;-74
2023/05/24 08:11:18;;;;;;;;;;;12.90;99.90;;;;;;20908288;28;19966;-76
2023/05/24 08:21:20;;;;;;;;;;;13.10;99.90;;;;;;20888614;28;19920;-76
2023/05/24 08:31:21;;;;;;;;;;;13.20;99.90;;;;;;20907210;28;19920;-76
2023/05/24 08:41:21;;;;;;;;;;;13.30;99.90;;;;;;20936103;28;19917;-76
2023/05/24 08:51:22;;;;;;;;;;;13.40;99.90;;;;;;20905895;28;19967;-76
2023/05/24 09:01:23;;;;;;;;;;;13.40;99.90;;;;;;20887600;28;20008;-77
2023/05/24 09:11:25;;;;;;;;;;;13.70;99.90;;;;;;20906619;28;20385;-76
2023/05/24 09:21:26;;;;;;;;;;;13.80;99.90;;;;;;20910254;28;19928;-75
2023/05/24 09:31:34;;;;;;;;;;;13.80;99.90;;;;;;20908074;28;19909;-74
2023/05/24 09:41:36;;;;;;;;;;;13.90;99.90;;;;;;20921076;28;20302;-76
2023/05/24 09:51:37;;;;;;;;;;;14.10;99.90;;;;;;20920605;28;19998;-75
2023/05/24 10:01:38;;;;;;;;;;;13.90;99.90;;;;;;20920421;28;19913;-75
2023/05/24 10:11:39;;;;;;;;;;;13.90;99.90;;;;;;20918970;28;19955;-77
2023/05/24 10:21:40;;;;;;;;;;;14.30;99.90;;;;;;20918970;28;19912;-75
2023/05/24 10:31:42;;;;;;;;;;;14.60;99.90;;;;;;20917010;28;19956;-76
2023/05/24 10:41:42;;;;;;;;;;;15.30;99.90;;;;;;20915163;28;20395;-76
2023/05/24 10:51:43;;;;;;;;;;;15.80;99.90;;;;;;20938411;28;19909;-76
2023/05/24 11:01:44;;;;;;;;;;;15.20;99.90;;;;;;20975887;28;20444;-76
2023/05/24 11:11:45;;;;;;;;;;;14.60;99.90;;;;;;20917030;28;20034;-75
2023/05/24 11:21:47;;;;;;;;;;;14.50;99.90;;;;;;20914127;28;19966;-77
2023/05/24 11:31:48;;;;;;;;;;;14.00;99.90;;;;;;20914069;28;19912;-76
2023/05/24 11:41:48;;;;;;;;;;;13.90;99.90;;;;;;20912118;28;19919;-75
2023/05/24 11:51:51;;;;;;;;;;;13.80;99.90;;;;;;20890875;28;20015;-77
2023/05/24 12:02:02;;;;;;;;;;;13.60;99.90;;;;;;20914023;28;19927;-77
2023/05/24 12:12:03;;;;;;;;;;;13.40;99.90;;;;;;20916767;28;20324;-77
2023/05/24 12:22:07;;;;;;;;;;;13.10;99.90;;;;;;20908352;28;19917;-74
2023/05/24 12:32:11;;;;;;;;;;;13.10;99.90;;;;;;20885933;28;19932;-78
2023/05/24 12:42:12;;;;;;;;;;;13.30;99.90;;;;;;20920727;28;19924;-79
2023/05/24 12:52:12;;;;;;;;;;;13.40;99.90;;;;;;20909297;28;19912;-78
2023/05/24 13:02:13;;;;;;;;;;;13.10;99.90;;;;;;20925091;28;20224;-78
2023/05/24 13:12:14;;;;;;;;;;;13.40;99.90;;;;;;20899972;28;19912;-78
2023/05/24 13:22:14;;;;;;;;;;;13.30;99.90;;;;;;20922144;28;19970;-77
2023/05/24 13:32:15;;;;;;;;;;;13.70;99.90;;;;;;20933768;28;19915;-79
2023/05/24 13:42:16;;;;;;;;;;;13.60;99.90;;;;;;20916373;28;20390;-79
2023/05/24 13:52:16;;;;;;;;;;;13.70;99.90;;;;;;20914160;28;19909;-78
2023/05/24 14:02:17;;;;;;;;;;;13.60;99.90;;;;;;20913080;28;20327;-78
2023/05/24 14:12:18;;;;;;;;;;;13.20;99.90;;;;;;20915643;28;19936;-78
2023/05/24 14:22:18;;;;;;;;;;;13.40;99.90;;;;;;20898283;28;19909;-78
2023/05/24 14:32:19;;;;;;;;;;;13.20;99.90;;;;;;20934439;28;20063;-79
2023/05/24 14:42:20;;;;;;;;;;;13.50;99.90;;;;;;20927600;28;20010;-78
2023/05/24 14:52:21;;;;;;;;;;;13.70;99.90;;;;;;20959405;28;20335;-78
2023/05/24 15:02:21;;;;;;;;;;;13.80;99.90;;;;;;20954060;28;20003;-79
2023/05/24 15:12:22;;;;;;;;;;;14.10;99.90;;;;;;20963214;28;19912;-79
2023/05/24 15:22:23;;;;;;;;;;;14.40;99.90;;;;;;20962699;28;19955;-80
2023/05/24 15:32:25;;;;;;;;;;;14.80;99.90;;;;;;20943894;28;19955;-80
2023/05/24 15:42:25;;;;;;;;;;;15.10;99.90;;;;;;20971330;28;19930;-80
2023/05/24 15:52:26;;;;;;;;;;;15.00;99.90;;;;;;20981413;28;19915;-79
2023/05/24 16:02:28;;;;;;;;;;;15.20;99.90;;;;;;20953543;28;19969;-80
2023/05/24 16:12:29;;;;;;;;;;;15.10;99.90;;;;;;20952166;28;19913;-79
2023/05/24 16:22:32;;;;;;;;;;;15.10;99.90;;;;;;20949023;28;19920;-78
2023/05/24 16:32:33;;;;;;;;;;;15.00;99.90;;;;;;20954633;28;19916;-78
2023/05/24 16:42:33;;;;;;;;;;;15.20;99.90;;;;;;20947271;28;19995;-80
2023/05/24 16:52:34;;;;;;;;;;;15.80;99.90;;;;;;20951406;28;19912;-79
2023/05/24 17:02:34;;;;;;;;;;;15.60;99.90;;;;;;20947659;28;20360;-79
2023/05/24 17:12:35;;;;;;;;;;;15.70;99.90;;;;;;20958560;28;19958;-81
2023/05/24 17:22:36;;;;;;;;;;;15.90;99.90;;;;;;20934668;28;19983;-76
2023/05/24 17:32:36;;;;;;;;;;;15.60;99.90;;;;;;20904553;28;20364;-77
2023/05/24 17:42:37;;;;;;;;;;;15.20;99.90;;;;;;20894026;28;19909;-77
2023/05/24 17:52:38;;;;;;;;;;;15.20;99.90;;;;;;20898489;28;20352;-76
2023/05/24 18:02:38;;;;;;;;;;;14.50;99.90;;;;;;20914385;28;19908;-77
2023/05/24 18:12:39;;;;;;;;;;;14.40;99.90;;;;;;20918654;28;20318;-77
2023/05/24 18:22:42;;;;;;;;;;;14.00;99.90;;;;;;20910304;28;19920;-77
2023/05/24 18:32:43;;;;;;;;;;;13.90;99.90;;;;;;20902338;28;19921;-76
2023/05/24 18:42:45;;;;;;;;;;;13.90;99.90;;;;;;20908358;28;19915;-76
2023/05/24 18:52:45;;;;;;;;;;;13.90;99.90;;;;;;20913918;28;19912;-77
2023/05/24 19:02:46;;;;;;;;;;;13.60;99.90;;;;;;20934699;28;19983;-77
2023/05/24 19:12:46;;;;;;;;;;;13.50;99.90;;;;;;20906911;28;19958;-78
2023/05/24 19:22:47;;;;;;;;;;;13.60;99.90;;;;;;20897273;28;20568;-77
2023/05/24 19:32:48;;;;;;;;;;;13.40;99.90;;;;;;20909585;28;19917;-77
2023/05/24 19:42:49;;;;;;;;;;;13.20;99.90;;;;;;20895937;28;19956;-77
2023/05/24 19:52:49;;;;;;;;;;;13.10;99.90;;;;;;20913080;28;20363;-76
2023/05/24 20:02:50;;;;;;;;;;;12.70;99.90;;;;;;20912042;28;19909;-77
2023/05/24 20:12:50;;;;;;;;;;;12.40;99.90;;;;;;20911838;28;20045;-76
2023/05/24 20:22:51;;;;;;;;;;;12.30;99.90;;;;;;20908043;28;19936;-76
2023/05/24 20:32:52;;;;;;;;;;;11.90;99.90;;;;;;20897168;28;19919;-76
2023/05/24 20:42:54;;;;;;;;;;;11.80;99.90;;;;;;20909426;28;19913;-75
2023/05/24 20:52:54;;;;;;;;;;;11.10;99.90;;;;;;20903736;28;19920;-76
2023/05/24 21:02:55;;;;;;;;;;;11.20;99.90;;;;;;20908616;28;20280;-76
2023/05/24 21:12:56;;;;;;;;;;;10.90;99.90;;;;;;20902830;28;19913;-76
2023/05/24 21:22:56;;;;;;;;;;;10.30;99.90;;;;;;20906642;28;19913;-76
2023/05/24 21:32:57;;;;;;;;;;;10.50;99.90;;;;;;20920822;28;19912;-74
2023/05/24 21:42:57;;;;;;;;;;;10.70;99.90;;;;;;20947836;28;19920;-74
2023/05/24 21:52:58;;;;;;;;;;;10.50;99.90;;;;;;20945122;28;19913;-75
2023/05/24 22:02:59;;;;;;;;;;;10.50;99.90;;;;;;20921910;28;19909;-74
2023/05/24 22:13:00;;;;;;;;;;;10.10;99.90;;;;;;20912410;28;19951;-75
2023/05/24 22:23:01;;;;;;;;;;;10.00;99.90;;;;;;20914327;28;20011;-75
2023/05/24 22:33:02;;;;;;;;;;;9.90;99.90;;;;;;20916454;28;20342;-75
2023/05/24 22:43:03;;;;;;;;;;;9.40;99.90;;;;;;20897771;28;19982;-75
2023/05/24 22:53:04;;;;;;;;;;;9.60;99.90;;;;;;20898251;28;19921;-75
2023/05/24 23:03:06;;;;;;;;;;;9.40;99.90;;;;;;20905676;28;19999;-75
2023/05/24 23:13:07;;;;;;;;;;;9.50;99.90;;;;;;20892721;28;19912;-75
2023/05/24 23:23:07;;;;;;;;;;;10.10;99.90;;;;;;20901106;28;19909;-74
2023/05/24 23:33:08;;;;;;;;;;;10.20;99.90;;;;;;20896306;28;19916;-75
2023/05/24 23:43:09;;;;;;;;;;;10.20;99.90;;;;;;20906924;28;19913;-74
2023/05/24 23:53:10;;;;;;;;;;;10.40;99.90;;;;;;20887339;28;19916;-75
